sensor_id;sensor_type;location;lat;lon;timestamp;temperature;humidity
54680;DHT22;40578;53.178;5.846;2022-10-26T00:01:27;9.80;99.90
54680;DHT22;40578;53.178;5.846;2022-10-26T00:03:54;9.80;99.90
54680;DHT22;40578;53.178;5.846;2022-10-26T00:06:23;10.00;99.90
54680;DHT22;40578;53.178;5.846;2022-10-26T00:08:56;9.70;99.90
54680;DHT22;40578;53.178;5.846;2022-10-26T00:11:22;9.40;99.90
54680;DHT22;40578;53.178;5.846;2022-10-26T00:13:48;9.90;99.90
54680;DHT22;40578;53.178;5.846;2022-10-26T00:16:23;9.80;99.90
54680;DHT22;40578;53.178;5.846;2022-10-26T00:18:49;9.20;99.90
54680;DHT22;40578;53.178;5.846;2022-10-26T00:21:16;9.90;99.90
54680;DHT22;40578;53.178;5.846;2022-10-26T00:23:42;9.90;99.90
54680;DHT22;40578;53.178;5.846;2022-10-26T00:26:08;9.70;99.90
54680;DHT22;40578;53.178;5.846;2022-10-26T00:28:34;9.30;99.90
54680;DHT22;40578;53.178;5.846;2022-10-26T00:31:01;9.30;99.90
54680;DHT22;40578;53.178;5.846;2022-10-26T00:33:27;9.80;99.90
54680;DHT22;40578;53.178;5.846;2022-10-26T00:35:55;10.00;99.90
54680;DHT22;40578;53.178;5.846;2022-10-26T00:38:21;9.70;99.90
54680;DHT22;40578;53.178;5.846;2022-10-26T00:40:48;9.30;99.90
54680;DHT22;40578;53.178;5.846;2022-10-26T00:45:48;9.90;99.90
54680;DHT22;40578;53.178;5.846;2022-10-26T00:48:37;9.30;99.90
54680;DHT22;40578;53.178;5.846;2022-10-26T00:51:10;9.30;99.90
54680;DHT22;40578;53.178;5.846;2022-10-26T00:53:37;9.20;99.90
54680;DHT22;40578;53.178;5.846;2022-10-26T00:56:04;9.90;99.90
54680;DHT22;40578;53.178;5.846;2022-10-26T00:58:30;9.40;99.90
54680;DHT22;40578;53.178;5.846;2022-10-26T01:00:56;9.60;99.90
54680;DHT22;40578;53.178;5.846;2022-10-26T01:03:22;9.20;99.90
54680;DHT22;40578;53.178;5.846;2022-10-26T01:05:51;9.20;99.90
54680;DHT22;40578;53.178;5.846;2022-10-26T01:08:18;9.20;99.90
54680;DHT22;40578;53.178;5.846;2022-10-26T01:10:44;9.70;99.90
54680;DHT22;40578;53.178;5.846;2022-10-26T01:13:11;9.30;99.90
54680;DHT22;40578;53.178;5.846;2022-10-26T01:15:50;9.90;99.90
54680;DHT22;40578;53.178;5.846;2022-10-26T01:18:39;9.40;99.90
54680;DHT22;40578;53.178;5.846;2022-10-26T01:27:19;10.00;99.90
54680;DHT22;40578;53.178;5.846;2022-10-26T01:35:18;9.30;99.90
54680;DHT22;40578;53.178;5.846;2022-10-26T01:38:00;9.70;99.90
54680;DHT22;40578;53.178;5.846;2022-10-26T01:40:44;9.70;99.90
54680;DHT22;40578;53.178;5.846;2022-10-26T01:43:12;9.20;99.90
54680;DHT22;40578;53.178;5.846;2022-10-26T01:45:43;9.00;99.90
54680;DHT22;40578;53.178;5.846;2022-10-26T01:48:13;9.20;99.90
54680;DHT22;40578;53.178;5.846;2022-10-26T01:50:41;9.20;99.90
54680;DHT22;40578;53.178;5.846;2022-10-26T01:53:12;9.10;99.90
54680;DHT22;40578;53.178;5.846;2022-10-26T01:55:49;9.00;99.90
54680;DHT22;40578;53.178;5.846;2022-10-26T02:04:11;9.50;99.90
54680;DHT22;40578;53.178;5.846;2022-10-26T02:07:05;9.40;99.90
54680;DHT22;40578;53.178;5.846;2022-10-26T02:12:35;8.80;99.90
54680;DHT22;40578;53.178;5.846;2022-10-26T02:15:21;8.80;99.90
54680;DHT22;40578;53.178;5.846;2022-10-26T02:17:50;9.40;99.90
54680;DHT22;40578;53.178;5.846;2022-10-26T02:20:26;8.90;99.90
54680;DHT22;40578;53.178;5.846;2022-10-26T02:22:55;9.10;99.90
54680;DHT22;40578;53.178;5.846;2022-10-26T02:25:28;9.10;99.90
54680;DHT22;40578;53.178;5.846;2022-10-26T02:27:59;9.50;99.90
54680;DHT22;40578;53.178;5.846;2022-10-26T02:30:27;8.90;99.90
54680;DHT22;40578;53.178;5.846;2022-10-26T02:32:55;9.10;99.90
54680;DHT22;40578;53.178;5.846;2022-10-26T02:35:26;9.80;99.90
54680;DHT22;40578;53.178;5.846;2022-10-26T02:37:55;9.70;99.90
54680;DHT22;40578;53.178;5.846;2022-10-26T02:40:25;9.60;99.90
54680;DHT22;40578;53.178;5.846;2022-10-26T02:42:53;9.00;99.90
54680;DHT22;40578;53.178;5.846;2022-10-26T02:45:24;9.10;99.90
54680;DHT22;40578;53.178;5.846;2022-10-26T02:47:51;9.60;99.90
54680;DHT22;40578;53.178;5.846;2022-10-26T02:50:22;9.00;99.90
54680;DHT22;40578;53.178;5.846;2022-10-26T02:52:56;9.70;99.90
54680;DHT22;40578;53.178;5.846;2022-10-26T02:55:47;8.90;99.90
54680;DHT22;40578;53.178;5.846;2022-10-26T02:58:15;9.60;99.90
54680;DHT22;40578;53.178;5.846;2022-10-26T03:00:43;9.10;99.90
54680;DHT22;40578;53.178;5.846;2022-10-26T03:03:10;9.40;99.90
54680;DHT22;40578;53.178;5.846;2022-10-26T03:05:35;9.50;99.90
54680;DHT22;40578;53.178;5.846;2022-10-26T03:08:02;9.00;99.90
54680;DHT22;40578;53.178;5.846;2022-10-26T03:10:28;9.00;99.90
54680;DHT22;40578;53.178;5.846;2022-10-26T03:12:54;9.40;99.90
54680;DHT22;40578;53.178;5.846;2022-10-26T03:15:20;9.20;99.90
54680;DHT22;40578;53.178;5.846;2022-10-26T03:17:46;8.80;99.90
54680;DHT22;40578;53.178;5.846;2022-10-26T03:20:12;9.40;99.90
54680;DHT22;40578;53.178;5.846;2022-10-26T03:22:37;8.80;99.90
54680;DHT22;40578;53.178;5.846;2022-10-26T03:25:03;9.50;99.90
54680;DHT22;40578;53.178;5.846;2022-10-26T03:27:29;9.10;99.90
54680;DHT22;40578;53.178;5.846;2022-10-26T03:29:55;8.90;99.90
54680;DHT22;40578;53.178;5.846;2022-10-26T03:32:22;9.10;99.90
54680;DHT22;40578;53.178;5.846;2022-10-26T03:34:48;8.90;99.90
54680;DHT22;40578;53.178;5.846;2022-10-26T03:37:13;9.60;99.90
54680;DHT22;40578;53.178;5.846;2022-10-26T03:39:39;9.50;99.90
54680;DHT22;40578;53.178;5.846;2022-10-26T03:42:04;9.60;99.90
54680;DHT22;40578;53.178;5.846;2022-10-26T03:44:30;9.00;99.90
54680;DHT22;40578;53.178;5.846;2022-10-26T03:46:56;9.70;99.90
54680;DHT22;40578;53.178;5.846;2022-10-26T03:49:21;9.10;99.90
54680;DHT22;40578;53.178;5.846;2022-10-26T03:51:47;9.10;99.90
54680;DHT22;40578;53.178;5.846;2022-10-26T03:54:13;9.40;99.90
54680;DHT22;40578;53.178;5.846;2022-10-26T03:56:39;9.10;99.90
54680;DHT22;40578;53.178;5.846;2022-10-26T03:59:05;10.00;99.90
54680;DHT22;40578;53.178;5.846;2022-10-26T04:01:30;9.60;99.90
54680;DHT22;40578;53.178;5.846;2022-10-26T04:03:56;9.60;99.90
54680;DHT22;40578;53.178;5.846;2022-10-26T04:06:22;9.10;99.90
54680;DHT22;40578;53.178;5.846;2022-10-26T04:08:47;9.20;99.90
54680;DHT22;40578;53.178;5.846;2022-10-26T04:11:13;9.90;99.90
54680;DHT22;40578;53.178;5.846;2022-10-26T04:13:41;9.40;99.90
54680;DHT22;40578;53.178;5.846;2022-10-26T04:16:06;9.40;99.90
54680;DHT22;40578;53.178;5.846;2022-10-26T04:18:32;9.90;99.90
54680;DHT22;40578;53.178;5.846;2022-10-26T04:21:01;10.00;99.90
54680;DHT22;40578;53.178;5.846;2022-10-26T04:23:27;10.20;99.90
54680;DHT22;40578;53.178;5.846;2022-10-26T04:25:52;10.20;99.90
54680;DHT22;40578;53.178;5.846;2022-10-26T04:28:18;9.50;99.90
54680;DHT22;40578;53.178;5.846;2022-10-26T04:30:43;9.50;99.90
54680;DHT22;40578;53.178;5.846;2022-10-26T04:33:09;9.50;99.90
54680;DHT22;40578;53.178;5.846;2022-10-26T04:35:35;10.30;99.90
54680;DHT22;40578;53.178;5.846;2022-10-26T04:38:03;10.20;99.90
54680;DHT22;40578;53.178;5.846;2022-10-26T04:40:30;9.50;99.90
54680;DHT22;40578;53.178;5.846;2022-10-26T04:42:57;9.60;99.90
54680;DHT22;40578;53.178;5.846;2022-10-26T04:45:22;9.80;99.90
54680;DHT22;40578;53.178;5.846;2022-10-26T04:48:08;10.30;99.90
54680;DHT22;40578;53.178;5.846;2022-10-26T04:50:35;9.90;99.90
54680;DHT22;40578;53.178;5.846;2022-10-26T04:53:01;9.70;99.90
54680;DHT22;40578;53.178;5.846;2022-10-26T04:55:26;10.40;99.90
54680;DHT22;40578;53.178;5.846;2022-10-26T04:57:52;9.80;99.90
54680;DHT22;40578;53.178;5.846;2022-10-26T05:00:18;10.20;99.90
54680;DHT22;40578;53.178;5.846;2022-10-26T05:02:44;9.60;99.90
54680;DHT22;40578;53.178;5.846;2022-10-26T05:05:09;9.70;99.90
54680;DHT22;40578;53.178;5.846;2022-10-26T05:07:35;10.40;99.90
54680;DHT22;40578;53.178;5.846;2022-10-26T05:10:01;10.30;99.90
54680;DHT22;40578;53.178;5.846;2022-10-26T05:12:26;10.30;99.90
54680;DHT22;40578;53.178;5.846;2022-10-26T05:14:52;10.40;99.90
54680;DHT22;40578;53.178;5.846;2022-10-26T05:17:18;9.70;99.90
54680;DHT22;40578;53.178;5.846;2022-10-26T05:19:44;10.40;99.90
54680;DHT22;40578;53.178;5.846;2022-10-26T05:22:17;10.20;99.90
54680;DHT22;40578;53.178;5.846;2022-10-26T05:24:42;9.70;99.90
54680;DHT22;40578;53.178;5.846;2022-10-26T05:27:08;9.90;99.90
54680;DHT22;40578;53.178;5.846;2022-10-26T05:29:33;10.50;99.90
54680;DHT22;40578;53.178;5.846;2022-10-26T05:31:59;9.70;99.90
54680;DHT22;40578;53.178;5.846;2022-10-26T05:34:25;10.40;99.90
54680;DHT22;40578;53.178;5.846;2022-10-26T05:36:52;9.80;99.90
54680;DHT22;40578;53.178;5.846;2022-10-26T05:39:18;9.80;99.90
54680;DHT22;40578;53.178;5.846;2022-10-26T05:41:44;10.80;99.90
54680;DHT22;40578;53.178;5.846;2022-10-26T05:44:10;10.40;99.90
54680;DHT22;40578;53.178;5.846;2022-10-26T05:46:35;10.50;99.90
54680;DHT22;40578;53.178;5.846;2022-10-26T05:49:01;9.80;99.90
54680;DHT22;40578;53.178;5.846;2022-10-26T05:51:26;10.20;99.90
54680;DHT22;40578;53.178;5.846;2022-10-26T05:53:52;9.90;99.90
54680;DHT22;40578;53.178;5.846;2022-10-26T05:56:34;10.70;99.90
54680;DHT22;40578;53.178;5.846;2022-10-26T05:59:00;10.40;99.90
54680;DHT22;40578;53.178;5.846;2022-10-26T06:04:48;10.30;99.90
54680;DHT22;40578;53.178;5.846;2022-10-26T06:07:12;9.90;99.90
54680;DHT22;40578;53.178;5.846;2022-10-26T06:09:39;9.90;99.90
54680;DHT22;40578;53.178;5.846;2022-10-26T06:12:06;10.10;99.90
54680;DHT22;40578;53.178;5.846;2022-10-26T06:14:33;10.60;99.90
54680;DHT22;40578;53.178;5.846;2022-10-26T06:19:46;10.40;99.90
54680;DHT22;40578;53.178;5.846;2022-10-26T06:22:48;10.60;99.90
54680;DHT22;40578;53.178;5.846;2022-10-26T06:28:37;10.40;99.90
54680;DHT22;40578;53.178;5.846;2022-10-26T06:30:35;9.70;99.90
54680;DHT22;40578;53.178;5.846;2022-10-26T06:33:01;9.70;99.90
54680;DHT22;40578;53.178;5.846;2022-10-26T06:35:38;9.70;99.90
54680;DHT22;40578;53.178;5.846;2022-10-26T06:38:13;9.90;99.90
54680;DHT22;40578;53.178;5.846;2022-10-26T06:40:43;10.30;99.90
54680;DHT22;40578;53.178;5.846;2022-10-26T06:43:26;9.60;99.90
54680;DHT22;40578;53.178;5.846;2022-10-26T06:49:04;10.20;99.90
54680;DHT22;40578;53.178;5.846;2022-10-26T06:51:37;10.20;99.90
54680;DHT22;40578;53.178;5.846;2022-10-26T06:56:36;10.20;99.90
54680;DHT22;40578;53.178;5.846;2022-10-26T06:59:27;10.30;99.90
54680;DHT22;40578;53.178;5.846;2022-10-26T07:01:54;10.10;99.90
54680;DHT22;40578;53.178;5.846;2022-10-26T07:04:19;10.00;99.90
54680;DHT22;40578;53.178;5.846;2022-10-26T07:06:45;9.80;99.90
54680;DHT22;40578;53.178;5.846;2022-10-26T07:09:10;10.50;99.90
54680;DHT22;40578;53.178;5.846;2022-10-26T07:11:36;10.50;99.90
54680;DHT22;40578;53.178;5.846;2022-10-26T07:14:02;10.30;99.90
54680;DHT22;40578;53.178;5.846;2022-10-26T07:16:27;10.50;99.90
54680;DHT22;40578;53.178;5.846;2022-10-26T07:18:53;10.70;99.90
54680;DHT22;40578;53.178;5.846;2022-10-26T07:21:19;10.80;99.90
54680;DHT22;40578;53.178;5.846;2022-10-26T07:23:44;10.10;99.90
54680;DHT22;40578;53.178;5.846;2022-10-26T07:26:11;10.20;99.90
54680;DHT22;40578;53.178;5.846;2022-10-26T07:28:37;10.20;99.90
54680;DHT22;40578;53.178;5.846;2022-10-26T07:31:02;10.40;99.90
54680;DHT22;40578;53.178;5.846;2022-10-26T07:33:30;10.20;99.90
54680;DHT22;40578;53.178;5.846;2022-10-26T07:35:58;10.40;99.90
54680;DHT22;40578;53.178;5.846;2022-10-26T07:38:24;10.40;99.90
54680;DHT22;40578;53.178;5.846;2022-10-26T07:40:50;11.10;99.90
54680;DHT22;40578;53.178;5.846;2022-10-26T07:43:18;11.20;99.90
54680;DHT22;40578;53.178;5.846;2022-10-26T07:45:48;10.50;99.90
54680;DHT22;40578;53.178;5.846;2022-10-26T07:48:13;11.40;99.90
54680;DHT22;40578;53.178;5.846;2022-10-26T07:50:39;11.30;99.90
54680;DHT22;40578;53.178;5.846;2022-10-26T07:53:04;11.40;99.90
54680;DHT22;40578;53.178;5.846;2022-10-26T07:55:30;10.80;99.90
54680;DHT22;40578;53.178;5.846;2022-10-26T07:57:56;11.00;99.90
54680;DHT22;40578;53.178;5.846;2022-10-26T08:00:21;11.40;99.90
54680;DHT22;40578;53.178;5.846;2022-10-26T08:02:47;11.50;99.90
54680;DHT22;40578;53.178;5.846;2022-10-26T08:05:13;11.50;99.90
54680;DHT22;40578;53.178;5.846;2022-10-26T08:07:43;11.40;99.90
54680;DHT22;40578;53.178;5.846;2022-10-26T08:10:09;11.30;99.90
54680;DHT22;40578;53.178;5.846;2022-10-26T08:12:35;10.80;99.90
54680;DHT22;40578;53.178;5.846;2022-10-26T08:15:01;11.70;99.90
54680;DHT22;40578;53.178;5.846;2022-10-26T08:17:28;11.00;99.90
54680;DHT22;40578;53.178;5.846;2022-10-26T08:19:53;12.00;99.90
54680;DHT22;40578;53.178;5.846;2022-10-26T08:22:19;11.80;99.90
54680;DHT22;40578;53.178;5.846;2022-10-26T08:24:44;11.10;99.90
54680;DHT22;40578;53.178;5.846;2022-10-26T08:27:15;11.90;99.90
54680;DHT22;40578;53.178;5.846;2022-10-26T08:29:40;11.40;99.90
54680;DHT22;40578;53.178;5.846;2022-10-26T08:32:07;11.40;99.90
54680;DHT22;40578;53.178;5.846;2022-10-26T08:34:33;11.40;99.90
54680;DHT22;40578;53.178;5.846;2022-10-26T08:36:59;11.90;99.90
54680;DHT22;40578;53.178;5.846;2022-10-26T08:39:26;11.60;99.90
54680;DHT22;40578;53.178;5.846;2022-10-26T08:42:11;12.20;99.90
54680;DHT22;40578;53.178;5.846;2022-10-26T08:44:49;12.10;99.90
54680;DHT22;40578;53.178;5.846;2022-10-26T08:47:20;11.90;99.90
54680;DHT22;40578;53.178;5.846;2022-10-26T08:52:48;12.00;99.90
54680;DHT22;40578;53.178;5.846;2022-10-26T08:55:19;11.70;99.90
54680;DHT22;40578;53.178;5.846;2022-10-26T08:57:47;11.80;99.90
54680;DHT22;40578;53.178;5.846;2022-10-26T09:00:22;12.70;99.90
54680;DHT22;40578;53.178;5.846;2022-10-26T09:02:52;12.00;99.90
54680;DHT22;40578;53.178;5.846;2022-10-26T09:05:26;12.40;99.90
54680;DHT22;40578;53.178;5.846;2022-10-26T09:08:15;12.40;99.90
54680;DHT22;40578;53.178;5.846;2022-10-26T09:10:53;12.20;99.90
54680;DHT22;40578;53.178;5.846;2022-10-26T09:14:08;12.50;99.90
54680;DHT22;40578;53.178;5.846;2022-10-26T09:16:25;12.80;99.90
54680;DHT22;40578;53.178;5.846;2022-10-26T09:24:38;13.30;99.90
54680;DHT22;40578;53.178;5.846;2022-10-26T09:27:20;13.10;99.90
54680;DHT22;40578;53.178;5.846;2022-10-26T09:29:48;12.80;99.90
54680;DHT22;40578;53.178;5.846;2022-10-26T09:32:22;13.40;99.90
54680;DHT22;40578;53.178;5.846;2022-10-26T09:34:55;13.00;99.90
54680;DHT22;40578;53.178;5.846;2022-10-26T09:37:28;13.20;99.90
54680;DHT22;40578;53.178;5.846;2022-10-26T09:39:58;13.20;99.90
54680;DHT22;40578;53.178;5.846;2022-10-26T09:42:40;13.20;99.90
54680;DHT22;40578;53.178;5.846;2022-10-26T09:45:22;13.50;99.90
54680;DHT22;40578;53.178;5.846;2022-10-26T09:47:51;13.90;99.90
54680;DHT22;40578;53.178;5.846;2022-10-26T09:50:26;13.40;99.90
54680;DHT22;40578;53.178;5.846;2022-10-26T09:52:53;13.80;99.90
54680;DHT22;40578;53.178;5.846;2022-10-26T09:55:19;13.50;99.90
54680;DHT22;40578;53.178;5.846;2022-10-26T09:57:50;14.10;99.90
54680;DHT22;40578;53.178;5.846;2022-10-26T10:00:18;13.90;99.90
54680;DHT22;40578;53.178;5.846;2022-10-26T10:02:49;14.00;99.90
54680;DHT22;40578;53.178;5.846;2022-10-26T10:05:24;14.20;99.90
54680;DHT22;40578;53.178;5.846;2022-10-26T10:07:50;14.30;99.90
54680;DHT22;40578;53.178;5.846;2022-10-26T10:10:21;14.30;99.90
54680;DHT22;40578;53.178;5.846;2022-10-26T10:12:49;13.90;99.90
54680;DHT22;40578;53.178;5.846;2022-10-26T10:15:21;14.40;99.90
54680;DHT22;40578;53.178;5.846;2022-10-26T10:17:49;14.50;99.90
54680;DHT22;40578;53.178;5.846;2022-10-26T10:20:22;14.50;99.90
54680;DHT22;40578;53.178;5.846;2022-10-26T10:22:59;14.30;99.90
54680;DHT22;40578;53.178;5.846;2022-10-26T10:27:58;14.70;99.90
54680;DHT22;40578;53.178;5.846;2022-10-26T10:30:31;14.50;99.90
54680;DHT22;40578;53.178;5.846;2022-10-26T10:33:15;14.80;99.90
54680;DHT22;40578;53.178;5.846;2022-10-26T10:35:48;14.40;99.90
54680;DHT22;40578;53.178;5.846;2022-10-26T10:38:17;14.60;99.90
54680;DHT22;40578;53.178;5.846;2022-10-26T10:40:52;14.80;99.90
54680;DHT22;40578;53.178;5.846;2022-10-26T10:43:19;14.60;99.90
54680;DHT22;40578;53.178;5.846;2022-10-26T10:45:51;14.60;99.90
54680;DHT22;40578;53.178;5.846;2022-10-26T10:50:56;15.10;99.90
54680;DHT22;40578;53.178;5.846;2022-10-26T10:53:31;15.20;99.90
54680;DHT22;40578;53.178;5.846;2022-10-26T10:56:25;15.20;99.90
54680;DHT22;40578;53.178;5.846;2022-10-26T11:02:05;15.40;99.90
54680;DHT22;40578;53.178;5.846;2022-10-26T11:05:10;15.10;97.00
54680;DHT22;40578;53.178;5.846;2022-10-26T11:10:22;15.30;18.90
54680;DHT22;40578;53.178;5.846;2022-10-26T11:12:57;15.70;1.00
54680;DHT22;40578;53.178;5.846;2022-10-26T11:15:27;15.70;4.00
54680;DHT22;40578;53.178;5.846;2022-10-26T11:18:20;15.60;1.00
54680;DHT22;40578;53.178;5.846;2022-10-26T11:20:57;15.90;1.00
54680;DHT22;40578;53.178;5.846;2022-10-26T11:23:31;15.80;1.00
54680;DHT22;40578;53.178;5.846;2022-10-26T11:26:14;16.00;1.00
54680;DHT22;40578;53.178;5.846;2022-10-26T11:29:18;16.10;1.00
54680;DHT22;40578;53.178;5.846;2022-10-26T11:31:45;15.90;99.90
54680;DHT22;40578;53.178;5.846;2022-10-26T11:34:25;15.90;1.00
54680;DHT22;40578;53.178;5.846;2022-10-26T11:37:04;16.20;1.00
54680;DHT22;40578;53.178;5.846;2022-10-26T11:39:37;16.10;1.00
54680;DHT22;40578;53.178;5.846;2022-10-26T11:42:25;16.10;99.90
54680;DHT22;40578;53.178;5.846;2022-10-26T11:44:59;16.30;99.90
54680;DHT22;40578;53.178;5.846;2022-10-26T11:47:36;16.20;99.90
54680;DHT22;40578;53.178;5.846;2022-10-26T11:50:16;16.50;99.90
54680;DHT22;40578;53.178;5.846;2022-10-26T11:55:16;16.20;1.00
54680;DHT22;40578;53.178;5.846;2022-10-26T11:57:44;16.10;99.90
54680;DHT22;40578;53.178;5.846;2022-10-26T12:00:15;17.10;99.90
54680;DHT22;40578;53.178;5.846;2022-10-26T12:02:51;16.20;99.90
54680;DHT22;40578;53.178;5.846;2022-10-26T12:05:22;16.20;99.90
54680;DHT22;40578;53.178;5.846;2022-10-26T12:07:54;16.00;99.90
54680;DHT22;40578;53.178;5.846;2022-10-26T12:10:27;16.30;1.00
54680;DHT22;40578;53.178;5.846;2022-10-26T12:18:55;16.10;1.00
54680;DHT22;40578;53.178;5.846;2022-10-26T12:21:27;16.50;1.00
54680;DHT22;40578;53.178;5.846;2022-10-26T12:23:58;16.20;1.00
54680;DHT22;40578;53.178;5.846;2022-10-26T12:34:04;16.70;1.00
54680;DHT22;40578;53.178;5.846;2022-10-26T12:39:40;16.60;1.00
54680;DHT22;40578;53.178;5.846;2022-10-26T12:52:56;16.90;1.00
54680;DHT22;40578;53.178;5.846;2022-10-26T13:09:07;17.20;99.90
54680;DHT22;40578;53.178;5.846;2022-10-26T13:11:35;16.80;1.00
54680;DHT22;40578;53.178;5.846;2022-10-26T13:14:07;16.90;1.00
54680;DHT22;40578;53.178;5.846;2022-10-26T13:16:39;16.80;1.00
54680;DHT22;40578;53.178;5.846;2022-10-26T13:19:42;17.20;8.40
54680;DHT22;40578;53.178;5.846;2022-10-26T13:22:19;16.70;76.80
54680;DHT22;40578;53.178;5.846;2022-10-26T13:24:58;16.60;99.90
54680;DHT22;40578;53.178;5.846;2022-10-26T13:30:16;16.40;99.90
54680;DHT22;40578;53.178;5.846;2022-10-26T13:32:51;16.60;99.90
54680;DHT22;40578;53.178;5.846;2022-10-26T13:35:19;16.40;99.90
54680;DHT22;40578;53.178;5.846;2022-10-26T13:37:47;16.80;99.90
54680;DHT22;40578;53.178;5.846;2022-10-26T13:40:20;16.70;99.90
54680;DHT22;40578;53.178;5.846;2022-10-26T13:43:01;16.80;99.90
54680;DHT22;40578;53.178;5.846;2022-10-26T13:46:02;16.90;99.90
54680;DHT22;40578;53.178;5.846;2022-10-26T13:48:37;16.80;99.90
54680;DHT22;40578;53.178;5.846;2022-10-26T13:51:25;16.90;99.90
54680;DHT22;40578;53.178;5.846;2022-10-26T13:53:58;17.00;99.90
54680;DHT22;40578;53.178;5.846;2022-10-26T13:56:35;16.60;99.90
54680;DHT22;40578;53.178;5.846;2022-10-26T13:59:08;16.70;99.90
54680;DHT22;40578;53.178;5.846;2022-10-26T14:01:35;16.70;99.90
54680;DHT22;40578;53.178;5.846;2022-10-26T14:04:27;16.70;99.90
54680;DHT22;40578;53.178;5.846;2022-10-26T14:06:53;16.70;99.90
54680;DHT22;40578;53.178;5.846;2022-10-26T14:09:20;17.30;99.90
54680;DHT22;40578;53.178;5.846;2022-10-26T14:11:53;16.90;99.90
54680;DHT22;40578;53.178;5.846;2022-10-26T14:14:33;16.70;99.90
54680;DHT22;40578;53.178;5.846;2022-10-26T14:16:59;17.10;99.90
54680;DHT22;40578;53.178;5.846;2022-10-26T14:19:28;16.90;99.90
54680;DHT22;40578;53.178;5.846;2022-10-26T14:21:55;16.60;99.90
54680;DHT22;40578;53.178;5.846;2022-10-26T14:24:30;16.90;99.90
54680;DHT22;40578;53.178;5.846;2022-10-26T14:26:56;16.80;99.90
54680;DHT22;40578;53.178;5.846;2022-10-26T14:29:24;16.70;99.90
54680;DHT22;40578;53.178;5.846;2022-10-26T14:31:50;17.20;99.90
54680;DHT22;40578;53.178;5.846;2022-10-26T14:34:17;16.80;99.90
54680;DHT22;40578;53.178;5.846;2022-10-26T14:36:49;16.70;99.90
54680;DHT22;40578;53.178;5.846;2022-10-26T14:39:38;16.60;99.90
54680;DHT22;40578;53.178;5.846;2022-10-26T14:42:28;16.60;99.90
54680;DHT22;40578;53.178;5.846;2022-10-26T14:44:56;16.60;99.90
54680;DHT22;40578;53.178;5.846;2022-10-26T14:47:27;17.00;99.90
54680;DHT22;40578;53.178;5.846;2022-10-26T14:49:54;16.20;99.90
54680;DHT22;40578;53.178;5.846;2022-10-26T14:52:28;16.40;99.90
54680;DHT22;40578;53.178;5.846;2022-10-26T14:55:14;16.40;99.90
54680;DHT22;40578;53.178;5.846;2022-10-26T14:57:42;16.40;99.90
54680;DHT22;40578;53.178;5.846;2022-10-26T15:00:23;16.60;99.90
54680;DHT22;40578;53.178;5.846;2022-10-26T15:02:56;16.10;99.90
54680;DHT22;40578;53.178;5.846;2022-10-26T15:07:48;16.40;99.90
54680;DHT22;40578;53.178;5.846;2022-10-26T15:13:27;16.00;99.90
54680;DHT22;40578;53.178;5.846;2022-10-26T15:15:55;16.20;99.90
54680;DHT22;40578;53.178;5.846;2022-10-26T15:18:30;16.10;99.90
54680;DHT22;40578;53.178;5.846;2022-10-26T15:20:57;15.70;99.90
54680;DHT22;40578;53.178;5.846;2022-10-26T15:23:24;16.10;99.90
54680;DHT22;40578;53.178;5.846;2022-10-26T15:25:54;15.70;99.90
54680;DHT22;40578;53.178;5.846;2022-10-26T15:31:26;16.00;99.90
54680;DHT22;40578;53.178;5.846;2022-10-26T15:36:26;15.80;99.90
54680;DHT22;40578;53.178;5.846;2022-10-26T15:38:52;15.50;99.90
54680;DHT22;40578;53.178;5.846;2022-10-26T15:41:29;15.90;99.90
54680;DHT22;40578;53.178;5.846;2022-10-26T15:44:02;15.60;99.90
54680;DHT22;40578;53.178;5.846;2022-10-26T15:46:32;15.90;99.90
54680;DHT22;40578;53.178;5.846;2022-10-26T15:49:01;15.60;99.90
54680;DHT22;40578;53.178;5.846;2022-10-26T15:51:27;16.30;99.90
54680;DHT22;40578;53.178;5.846;2022-10-26T15:53:56;15.60;99.90
54680;DHT22;40578;53.178;5.846;2022-10-26T15:56:22;15.50;99.90
54680;DHT22;40578;53.178;5.846;2022-10-26T15:58:49;15.70;99.90
54680;DHT22;40578;53.178;5.846;2022-10-26T16:01:17;15.40;99.90
54680;DHT22;40578;53.178;5.846;2022-10-26T16:03:43;15.50;99.90
54680;DHT22;40578;53.178;5.846;2022-10-26T16:06:25;15.60;99.90
54680;DHT22;40578;53.178;5.846;2022-10-26T16:08:52;15.60;99.90
54680;DHT22;40578;53.178;5.846;2022-10-26T16:11:20;15.40;99.90
54680;DHT22;40578;53.178;5.846;2022-10-26T16:13:48;15.70;99.90
54680;DHT22;40578;53.178;5.846;2022-10-26T16:16:15;14.90;99.90
54680;DHT22;40578;53.178;5.846;2022-10-26T16:18:42;15.30;99.90
54680;DHT22;40578;53.178;5.846;2022-10-26T16:21:12;15.80;99.90
54680;DHT22;40578;53.178;5.846;2022-10-26T16:23:38;15.40;99.90
54680;DHT22;40578;53.178;5.846;2022-10-26T16:26:04;15.40;99.90
54680;DHT22;40578;53.178;5.846;2022-10-26T16:28:30;15.30;99.90
54680;DHT22;40578;53.178;5.846;2022-10-26T16:31:04;15.50;99.90
54680;DHT22;40578;53.178;5.846;2022-10-26T16:33:30;15.00;99.90
54680;DHT22;40578;53.178;5.846;2022-10-26T16:35:56;15.10;99.90
54680;DHT22;40578;53.178;5.846;2022-10-26T16:38:23;15.30;99.90
54680;DHT22;40578;53.178;5.846;2022-10-26T16:40:49;14.90;99.90
54680;DHT22;40578;53.178;5.846;2022-10-26T16:43:15;14.90;99.90
54680;DHT22;40578;53.178;5.846;2022-10-26T16:45:41;15.20;99.90
54680;DHT22;40578;53.178;5.846;2022-10-26T16:48:09;15.00;99.90
54680;DHT22;40578;53.178;5.846;2022-10-26T16:50:39;14.90;99.90
54680;DHT22;40578;53.178;5.846;2022-10-26T16:53:05;15.20;99.90
54680;DHT22;40578;53.178;5.846;2022-10-26T16:55:31;15.40;99.90
54680;DHT22;40578;53.178;5.846;2022-10-26T16:57:57;15.10;99.90
54680;DHT22;40578;53.178;5.846;2022-10-26T17:00:22;15.20;99.90
54680;DHT22;40578;53.178;5.846;2022-10-26T17:02:48;15.10;99.90
54680;DHT22;40578;53.178;5.846;2022-10-26T17:05:14;15.30;99.90
54680;DHT22;40578;53.178;5.846;2022-10-26T17:07:39;15.30;99.90
54680;DHT22;40578;53.178;5.846;2022-10-26T17:10:05;15.40;99.90
54680;DHT22;40578;53.178;5.846;2022-10-26T17:12:31;14.90;99.90
54680;DHT22;40578;53.178;5.846;2022-10-26T17:14:56;15.20;99.90
54680;DHT22;40578;53.178;5.846;2022-10-26T17:17:25;15.40;99.90
54680;DHT22;40578;53.178;5.846;2022-10-26T17:19:50;15.20;99.90
54680;DHT22;40578;53.178;5.846;2022-10-26T17:22:16;15.20;99.90
54680;DHT22;40578;53.178;5.846;2022-10-26T17:24:41;15.20;99.90
54680;DHT22;40578;53.178;5.846;2022-10-26T17:27:07;15.20;99.90
54680;DHT22;40578;53.178;5.846;2022-10-26T17:29:32;15.20;99.90
54680;DHT22;40578;53.178;5.846;2022-10-26T17:31:58;15.00;99.90
54680;DHT22;40578;53.178;5.846;2022-10-26T17:34:24;14.60;99.90
54680;DHT22;40578;53.178;5.846;2022-10-26T17:36:49;15.10;99.90
54680;DHT22;40578;53.178;5.846;2022-10-26T17:39:16;14.80;99.90
54680;DHT22;40578;53.178;5.846;2022-10-26T17:41:44;14.40;99.90
54680;DHT22;40578;53.178;5.846;2022-10-26T17:44:09;14.60;99.90
54680;DHT22;40578;53.178;5.846;2022-10-26T17:46:35;14.20;99.90
54680;DHT22;40578;53.178;5.846;2022-10-26T17:49:01;14.60;99.90
54680;DHT22;40578;53.178;5.846;2022-10-26T17:51:28;14.10;99.90